HYS420 LROP-LUKK
Flight info
| Callsign | HYS420 |
|---|---|
| Flight time | N/A |
| Altitude | 29000 |
| Route | DENAK DCT URELA DCT FOCSA DCT KENUX DCT BCU DCT BUSES |
| Aircraft | A320/M-SDE3FGHIRWY/LB1 |
Departure
| Time | 2026-04-30 18:45 |
|---|---|
| Airport | Bucharest Henri Coandă International Airport (LROP) |
Arrival
| Time | N/A |
|---|---|
| Airport | Chişinău International Airport (LUKK) |
| Time | Latitude | Longitude | Altitude | Speed | Heading |
|---|---|---|---|---|---|
| 2026-04-30 18:26 | 44.57009 | 26.07964 | 323 ft | 0 kts | 354° |
| 2026-04-30 18:37 | 44.56995 | 26.07966 | 294 ft | 2 kts | 354° |
| 2026-04-30 18:38 | 44.56978 | 26.07968 | 321 ft | 2 kts | 354° |
| 2026-04-30 18:38 | 44.56963 | 26.07971 | 320 ft | 2 kts | 12° |
| 2026-04-30 18:38 | 44.56949 | 26.07960 | 318 ft | 2 kts | 79° |
| 2026-04-30 18:38 | 44.56949 | 26.07959 | 322 ft | 0 kts | 86° |
| 2026-04-30 18:40 | 44.56949 | 26.07967 | 321 ft | 1 kts | 86° |
| 2026-04-30 18:40 | 44.56948 | 26.07986 | 322 ft | 2 kts | 97° |
| 2026-04-30 18:40 | 44.56945 | 26.08019 | 322 ft | 5 kts | 98° |
| 2026-04-30 18:41 | 44.56939 | 26.08077 | 322 ft | 8 kts | 97° |
| 2026-04-30 18:41 | 44.56940 | 26.08165 | 322 ft | 11 kts | 85° |
| 2026-04-30 18:41 | 44.56947 | 26.08283 | 322 ft | 13 kts | 83° |
| 2026-04-30 18:41 | 44.56917 | 26.08408 | 322 ft | 15 kts | 130° |
| 2026-04-30 18:42 | 44.56939 | 26.08527 | 322 ft | 15 kts | 19° |
| 2026-04-30 18:42 | 44.57180 | 26.08512 | 323 ft | 20 kts | 354° |
| 2026-04-30 18:42 | 44.57324 | 26.08492 | 320 ft | 22 kts | 352° |
| 2026-04-30 18:45 | 44.58310 | 26.18078 | 2394 ft | 200 kts | 78° |
| 2026-04-30 18:45 | 44.58870 | 26.19946 | 2801 ft | 222 kts | 49° |
| 2026-04-30 18:45 | 44.60223 | 26.21097 | 3470 ft | 237 kts | 20° |
| 2026-04-30 18:46 | 44.61806 | 26.21836 | 4388 ft | 241 kts | 23° |
| 2026-04-30 18:46 | 44.63377 | 26.22707 | 5322 ft | 245 kts | 24° |
| 2026-04-30 18:46 | 44.64970 | 26.23633 | 6218 ft | 250 kts | 24° |
| 2026-04-30 18:46 | 44.66592 | 26.24579 | 7067 ft | 255 kts | 24° |
| 2026-04-30 18:47 | 44.68245 | 26.25537 | 7863 ft | 259 kts | 23° |
| 2026-04-30 18:47 | 44.69928 | 26.26501 | 8712 ft | 263 kts | 23° |
| 2026-04-30 18:47 | 44.71622 | 26.27462 | 9526 ft | 268 kts | 22° |
| 2026-04-30 18:47 | 44.73387 | 26.28459 | 10331 ft | 272 kts | 22° |
| 2026-04-30 18:48 | 44.75203 | 26.29486 | 10678 ft | 293 kts | 22° |
| 2026-04-30 18:48 | 44.77132 | 26.30573 | 11093 ft | 307 kts | 21° |
| 2026-04-30 18:48 | 44.79143 | 26.31702 | 11761 ft | 313 kts | 21° |
| 2026-04-30 18:48 | 44.81183 | 26.32846 | 12484 ft | 317 kts | 20° |
| 2026-04-30 18:49 | 44.83246 | 26.34006 | 13190 ft | 321 kts | 20° |
| 2026-04-30 18:49 | 44.85338 | 26.35182 | 13891 ft | 326 kts | 20° |
| 2026-04-30 18:49 | 44.87460 | 26.36373 | 14522 ft | 330 kts | 21° |
| 2026-04-30 18:49 | 44.89621 | 26.37587 | 15049 ft | 337 kts | 20° |
| 2026-04-30 18:50 | 44.91819 | 26.38823 | 15613 ft | 342 kts | 20° |
| 2026-04-30 18:50 | 44.94047 | 26.40074 | 16179 ft | 347 kts | 20° |
| 2026-04-30 18:50 | 44.96305 | 26.41345 | 16756 ft | 352 kts | 20° |
| 2026-04-30 18:50 | 44.98595 | 26.42637 | 17328 ft | 356 kts | 20° |
| 2026-04-30 18:51 | 45.00964 | 26.43736 | 17900 ft | 360 kts | 11° |
| 2026-04-30 18:51 | 45.03406 | 26.44375 | 18473 ft | 363 kts | 8° |
| 2026-04-30 18:51 | 45.05914 | 26.44999 | 19003 ft | 368 kts | 8° |
| 2026-04-30 18:51 | 45.08446 | 26.45632 | 19504 ft | 372 kts | 8° |
| 2026-04-30 18:52 | 45.11020 | 26.46276 | 20015 ft | 376 kts | 7° |
| 2026-04-30 18:52 | 45.13614 | 26.46929 | 20520 ft | 381 kts | 7° |
| 2026-04-30 18:52 | 45.16240 | 26.47597 | 21017 ft | 385 kts | 7° |
| 2026-04-30 18:52 | 45.18895 | 26.48273 | 21499 ft | 390 kts | 7° |
| 2026-04-30 18:53 | 45.21583 | 26.48957 | 21984 ft | 394 kts | 7° |
| 2026-04-30 18:53 | 45.24293 | 26.49644 | 22451 ft | 398 kts | 6° |
| 2026-04-30 18:53 | 45.27032 | 26.50334 | 22916 ft | 402 kts | 7° |
| 2026-04-30 18:53 | 45.29782 | 26.51029 | 23517 ft | 402 kts | 7° |
| 2026-04-30 18:54 | 45.32506 | 26.51720 | 23997 ft | 404 kts | 7° |
| 2026-04-30 18:54 | 45.35291 | 26.52431 | 24408 ft | 407 kts | 7° |
| 2026-04-30 18:54 | 45.38090 | 26.53148 | 24818 ft | 410 kts | 6° |
| 2026-04-30 18:54 | 45.40912 | 26.53872 | 25207 ft | 413 kts | 6° |
| 2026-04-30 18:55 | 45.43747 | 26.54594 | 25606 ft | 415 kts | 6° |
| 2026-04-30 18:55 | 45.49432 | 26.56042 | 26682 ft | 413 kts | 8° |
| 2026-04-30 18:55 | 45.52271 | 26.56774 | 27124 ft | 414 kts | 7° |
| 2026-04-30 18:56 | 45.57979 | 26.58242 | 27889 ft | 420 kts | 7° |
| 2026-04-30 18:56 | 45.60865 | 26.58981 | 28256 ft | 423 kts | 7° |
| 2026-04-30 18:56 | 45.63770 | 26.59723 | 28619 ft | 426 kts | 7° |
| 2026-04-30 18:57 | 45.69650 | 26.61223 | 29291 ft | 432 kts | 7° |
| 2026-04-30 18:57 | 45.72580 | 26.61979 | 29343 ft | 421 kts | 7° |
| 2026-04-30 18:57 | 45.75404 | 26.62719 | 29343 ft | 407 kts | 7° |
| 2026-04-30 18:58 | 45.83650 | 26.64860 | 29347 ft | 401 kts | 7° |
| 2026-04-30 18:59 | 45.91896 | 26.66989 | 29336 ft | 399 kts | 7° |
| 2026-04-30 19:00 | 46.02816 | 26.69840 | 29355 ft | 399 kts | 7° |
| 2026-04-30 19:01 | 46.13654 | 26.72689 | 29370 ft | 395 kts | 8° |
| 2026-04-30 19:02 | 46.21235 | 26.74677 | 29367 ft | 393 kts | 8° |
| 2026-04-30 19:03 | 46.31085 | 26.77260 | 29367 ft | 392 kts | 8° |
| 2026-04-30 19:04 | 46.41798 | 26.80093 | 28560 ft | 387 kts | 8° |
| 2026-04-30 19:04 | 46.47017 | 26.81752 | 27753 ft | 383 kts | 19° |
| 2026-04-30 19:05 | 46.51455 | 26.85881 | 26991 ft | 381 kts | 44° |
| 2026-04-30 19:05 | 46.54195 | 26.92326 | 26200 ft | 380 kts | 70° |
| 2026-04-30 19:06 | 46.55914 | 26.99665 | 24801 ft | 392 kts | 70° |
| 2026-04-30 19:06 | 46.56787 | 27.03420 | 24305 ft | 392 kts | 70° |
| 2026-04-30 19:06 | 46.58501 | 27.10851 | 23665 ft | 379 kts | 70° |
| 2026-04-30 19:07 | 46.60128 | 27.17948 | 23142 ft | 364 kts | 70° |
| 2026-04-30 19:07 | 46.60927 | 27.21423 | 22680 ft | 361 kts | 70° |
| 2026-04-30 19:08 | 46.62499 | 27.28266 | 21764 ft | 357 kts | 70° |
| 2026-04-30 19:08 | 46.64059 | 27.35107 | 20814 ft | 356 kts | 70° |
| 2026-04-30 19:08 | 46.64832 | 27.38523 | 20376 ft | 354 kts | 70° |
| 2026-04-30 19:09 | 46.66369 | 27.45300 | 19548 ft | 350 kts | 70° |
| 2026-04-30 19:09 | 46.67136 | 27.48669 | 19148 ft | 348 kts | 70° |
| 2026-04-30 19:09 | 46.67893 | 27.52007 | 18758 ft | 346 kts | 70° |
| 2026-04-30 19:10 | 46.69389 | 27.58631 | 17932 ft | 341 kts | 70° |
| 2026-04-30 19:10 | 46.70850 | 27.65147 | 17145 ft | 336 kts | 70° |
| 2026-04-30 19:11 | 46.71571 | 27.68368 | 16761 ft | 333 kts | 70° |
| 2026-04-30 19:11 | 46.72982 | 27.74685 | 16033 ft | 327 kts | 70° |
| 2026-04-30 19:11 | 46.73682 | 27.77827 | 15671 ft | 325 kts | 70° |
| 2026-04-30 19:12 | 46.74375 | 27.80947 | 15283 ft | 323 kts | 70° |
| 2026-04-30 19:12 | 46.75069 | 27.84062 | 14855 ft | 323 kts | 70° |
| 2026-04-30 19:12 | 46.75765 | 27.87183 | 14432 ft | 323 kts | 70° |
| 2026-04-30 19:13 | 46.77155 | 27.93410 | 13523 ft | 322 kts | 70° |
| 2026-04-30 19:13 | 46.78527 | 27.99612 | 12585 ft | 318 kts | 70° |
| 2026-04-30 19:13 | 46.79191 | 28.02634 | 12072 ft | 309 kts | 70° |
| 2026-04-30 19:14 | 46.79847 | 28.05611 | 11498 ft | 311 kts | 70° |
| 2026-04-30 19:14 | 46.80500 | 28.08578 | 11307 ft | 303 kts | 70° |
| 2026-04-30 19:14 | 46.81141 | 28.11496 | 10990 ft | 300 kts | 70° |
| 2026-04-30 19:14 | 46.81773 | 28.14378 | 10653 ft | 298 kts | 70° |
| 2026-04-30 19:15 | 46.82405 | 28.17255 | 10316 ft | 296 kts | 70° |
| 2026-04-30 19:15 | 46.83652 | 28.22947 | 9609 ft | 292 kts | 70° |
| 2026-04-30 19:15 | 46.84266 | 28.25762 | 9245 ft | 291 kts | 70° |
| 2026-04-30 19:16 | 46.84876 | 28.28570 | 8893 ft | 289 kts | 70° |
| 2026-04-30 19:16 | 46.85481 | 28.31358 | 8537 ft | 287 kts | 70° |
| 2026-04-30 19:16 | 46.86683 | 28.36883 | 7872 ft | 283 kts | 70° |
| 2026-04-30 19:17 | 46.87273 | 28.39610 | 7546 ft | 281 kts | 70° |
| 2026-04-30 19:17 | 46.88433 | 28.44983 | 6623 ft | 273 kts | 71° |
| 2026-04-30 19:17 | 46.89004 | 28.47629 | 6105 ft | 266 kts | 70° |
| 2026-04-30 19:18 | 46.89912 | 28.51834 | 5276 ft | 256 kts | 70° |
| 2026-04-30 19:18 | 46.90584 | 28.54979 | 4613 ft | 235 kts | 70° |
| 2026-04-30 19:18 | 46.91069 | 28.57244 | 4124 ft | 231 kts | 70° |
| 2026-04-30 19:19 | 46.91546 | 28.59466 | 3761 ft | 228 kts | 70° |
| 2026-04-30 19:19 | 46.91980 | 28.61703 | 3648 ft | 230 kts | 76° |
| 2026-04-30 19:19 | 46.92204 | 28.66383 | 3384 ft | 231 kts | 84° |
| 2026-04-30 19:20 | 46.92252 | 28.68725 | 3246 ft | 230 kts | 84° |
| 2026-04-30 19:20 | 46.92303 | 28.71062 | 3103 ft | 229 kts | 84° |
| 2026-04-30 19:20 | 46.92396 | 28.75353 | 2574 ft | 190 kts | 83° |
| 2026-04-30 19:21 | 46.92435 | 28.77161 | 2337 ft | 164 kts | 83° |
| 2026-04-30 19:21 | 46.92507 | 28.80096 | 1757 ft | 135 kts | 82° |
| 2026-04-30 19:22 | 46.92565 | 28.82772 | 1247 ft | 131 kts | 85° |
| 2026-04-30 19:22 | 46.92642 | 28.86748 | 929 ft | 131 kts | 85° |
| 2026-04-30 19:23 | 46.92732 | 28.90736 | 455 ft | 132 kts | 84° |
| 2026-04-30 19:24 | 46.92782 | 28.92957 | 351 ft | 61 kts | 89° |